Alanson, Michigan
Current Conditions -  °F | °C
As of 11:34 AM on Wednesday 22 Oct 2014 (Local Time) from KMGN Reporting Station
Broken Clouds Broken Clouds  
Wind Chill:   Ceiling: 1900
Heat Index:   Visibility: 10mi
Dew Point:   Wind: 3mph
Humidity: 66%   Direction: 130°SE
Pressure: 30.42"   Gusts: NA
Location:  45.44°N, 84.79°W
Report Text: KMGN 221534Z AUTO 13003KT 10SM BKN019 06/00 A3042 RMK AO2 T00660006
Loading
Personal Weather Stations






























Interactive Weather Map
Tropical Storm Tracking
New forecast layout! Learn more

10-Day Weather Forecast

Advertisements
Track Severe Weather on mobile